sensor_id;sensor_type;location;lat;lon;timestamp;P1;durP1;ratioP1;P2;durP2;ratioP2
60312;SDS011;46158;52.850;6.970;2023-12-14T00:01:14;8.40;;;3.10;;
60312;SDS011;46158;52.850;6.970;2023-12-14T00:03:40;5.03;;;2.75;;
60312;SDS011;46158;52.850;6.970;2023-12-14T00:06:07;7.53;;;3.22;;
60312;SDS011;46158;52.850;6.970;2023-12-14T00:08:33;5.90;;;2.97;;
60312;SDS011;46158;52.850;6.970;2023-12-14T00:11:05;7.35;;;3.20;;
60312;SDS011;46158;52.850;6.970;2023-12-14T00:13:33;6.82;;;3.13;;
60312;SDS011;46158;52.850;6.970;2023-12-14T00:15:59;6.93;;;2.97;;
60312;SDS011;46158;52.850;6.970;2023-12-14T00:18:24;6.00;;;2.67;;
60312;SDS011;46158;52.850;6.970;2023-12-14T00:20:50;7.43;;;3.10;;
60312;SDS011;46158;52.850;6.970;2023-12-14T00:23:16;5.55;;;3.00;;
60312;SDS011;46158;52.850;6.970;2023-12-14T00:25:42;6.50;;;2.90;;
60312;SDS011;46158;52.850;6.970;2023-12-14T00:28:07;6.90;;;3.20;;
60312;SDS011;46158;52.850;6.970;2023-12-14T00:30:33;6.28;;;2.95;;
60312;SDS011;46158;52.850;6.970;2023-12-14T00:32:58;6.85;;;2.90;;
60312;SDS011;46158;52.850;6.970;2023-12-14T00:35:24;6.63;;;2.97;;
60312;SDS011;46158;52.850;6.970;2023-12-14T00:37:50;6.57;;;3.05;;
60312;SDS011;46158;52.850;6.970;2023-12-14T00:40:16;6.70;;;2.72;;
60312;SDS011;46158;52.850;6.970;2023-12-14T00:42:41;5.88;;;2.83;;
60312;SDS011;46158;52.850;6.970;2023-12-14T00:45:07;5.13;;;2.60;;
60312;SDS011;46158;52.850;6.970;2023-12-14T00:47:33;6.20;;;2.90;;
60312;SDS011;46158;52.850;6.970;2023-12-14T00:49:59;7.55;;;2.90;;
60312;SDS011;46158;52.850;6.970;2023-12-14T00:52:24;4.13;;;2.50;;
60312;SDS011;46158;52.850;6.970;2023-12-14T00:54:50;6.60;;;2.92;;
60312;SDS011;46158;52.850;6.970;2023-12-14T00:57:16;6.18;;;2.80;;
60312;SDS011;46158;52.850;6.970;2023-12-14T00:59:41;5.63;;;2.90;;
60312;SDS011;46158;52.850;6.970;2023-12-14T01:02:07;5.40;;;2.67;;
60312;SDS011;46158;52.850;6.970;2023-12-14T01:04:32;6.35;;;2.88;;
60312;SDS011;46158;52.850;6.970;2023-12-14T01:06:58;4.25;;;2.60;;
60312;SDS011;46158;52.850;6.970;2023-12-14T01:09:24;4.18;;;2.45;;
60312;SDS011;46158;52.850;6.970;2023-12-14T01:11:49;6.35;;;2.85;;
60312;SDS011;46158;52.850;6.970;2023-12-14T01:14:15;6.72;;;2.70;;
60312;SDS011;46158;52.850;6.970;2023-12-14T01:16:41;5.40;;;2.83;;
60312;SDS011;46158;52.850;6.970;2023-12-14T01:19:06;6.38;;;2.80;;
60312;SDS011;46158;52.850;6.970;2023-12-14T01:21:32;5.80;;;2.60;;
60312;SDS011;46158;52.850;6.970;2023-12-14T01:23:58;4.88;;;2.60;;
60312;SDS011;46158;52.850;6.970;2023-12-14T01:26:25;5.85;;;2.60;;
60312;SDS011;46158;52.850;6.970;2023-12-14T01:28:52;4.10;;;2.50;;
60312;SDS011;46158;52.850;6.970;2023-12-14T01:31:18;5.53;;;2.60;;
60312;SDS011;46158;52.850;6.970;2023-12-14T01:33:44;4.50;;;2.45;;
60312;SDS011;46158;52.850;6.970;2023-12-14T01:36:11;4.25;;;2.70;;
60312;SDS011;46158;52.850;6.970;2023-12-14T01:38:36;4.82;;;2.55;;
60312;SDS011;46158;52.850;6.970;2023-12-14T01:41:02;4.00;;;2.47;;
60312;SDS011;46158;52.850;6.970;2023-12-14T01:43:28;5.28;;;2.60;;
60312;SDS011;46158;52.850;6.970;2023-12-14T01:45:54;4.63;;;2.55;;
60312;SDS011;46158;52.850;6.970;2023-12-14T01:48:20;5.80;;;2.80;;
60312;SDS011;46158;52.850;6.970;2023-12-14T01:50:45;5.38;;;2.60;;
60312;SDS011;46158;52.850;6.970;2023-12-14T01:53:11;4.35;;;2.58;;
60312;SDS011;46158;52.850;6.970;2023-12-14T01:55:36;5.88;;;2.72;;
60312;SDS011;46158;52.850;6.970;2023-12-14T01:58:02;6.70;;;2.80;;
60312;SDS011;46158;52.850;6.970;2023-12-14T02:03:20;5.90;;;2.92;;
60312;SDS011;46158;52.850;6.970;2023-12-14T02:05:46;5.90;;;2.80;;
60312;SDS011;46158;52.850;6.970;2023-12-14T02:08:12;5.32;;;2.60;;
60312;SDS011;46158;52.850;6.970;2023-12-14T02:10:37;5.72;;;2.70;;
60312;SDS011;46158;52.850;6.970;2023-12-14T02:13:03;5.00;;;2.65;;
60312;SDS011;46158;52.850;6.970;2023-12-14T02:15:29;5.20;;;2.70;;
60312;SDS011;46158;52.850;6.970;2023-12-14T02:17:55;6.55;;;2.45;;
60312;SDS011;46158;52.850;6.970;2023-12-14T02:20:20;6.00;;;2.50;;
60312;SDS011;46158;52.850;6.970;2023-12-14T02:22:53;5.22;;;2.60;;
60312;SDS011;46158;52.850;6.970;2023-12-14T02:25:19;6.53;;;2.72;;
60312;SDS011;46158;52.850;6.970;2023-12-14T02:27:45;4.75;;;2.40;;
60312;SDS011;46158;52.850;6.970;2023-12-14T02:30:12;4.15;;;2.50;;
60312;SDS011;46158;52.850;6.970;2023-12-14T02:32:38;4.88;;;2.45;;
60312;SDS011;46158;52.850;6.970;2023-12-14T02:35:05;4.20;;;2.40;;
60312;SDS011;46158;52.850;6.970;2023-12-14T02:37:31;5.68;;;2.50;;
60312;SDS011;46158;52.850;6.970;2023-12-14T02:39:58;6.63;;;3.10;;
60312;SDS011;46158;52.850;6.970;2023-12-14T02:42:23;5.65;;;2.47;;
60312;SDS011;46158;52.850;6.970;2023-12-14T02:44:49;10.07;;;2.90;;
60312;SDS011;46158;52.850;6.970;2023-12-14T02:47:15;7.78;;;2.53;;
60312;SDS011;46158;52.850;6.970;2023-12-14T02:49:41;6.82;;;2.38;;
60312;SDS011;46158;52.850;6.970;2023-12-14T02:52:07;4.38;;;2.38;;
60312;SDS011;46158;52.850;6.970;2023-12-14T02:54:32;5.22;;;2.40;;
60312;SDS011;46158;52.850;6.970;2023-12-14T02:56:58;4.45;;;2.60;;
60312;SDS011;46158;52.850;6.970;2023-12-14T02:59:23;5.63;;;2.42;;
60312;SDS011;46158;52.850;6.970;2023-12-14T03:01:50;4.53;;;2.50;;
60312;SDS011;46158;52.850;6.970;2023-12-14T03:04:15;4.25;;;2.50;;
60312;SDS011;46158;52.850;6.970;2023-12-14T03:06:41;5.25;;;2.50;;
60312;SDS011;46158;52.850;6.970;2023-12-14T03:09:06;6.60;;;2.53;;
60312;SDS011;46158;52.850;6.970;2023-12-14T03:11:32;4.80;;;2.65;;
60312;SDS011;46158;52.850;6.970;2023-12-14T03:13:59;4.50;;;2.60;;
60312;SDS011;46158;52.850;6.970;2023-12-14T03:16:24;5.75;;;2.80;;
60312;SDS011;46158;52.850;6.970;2023-12-14T03:18:50;6.82;;;2.70;;
60312;SDS011;46158;52.850;6.970;2023-12-14T03:21:18;6.78;;;2.70;;
60312;SDS011;46158;52.850;6.970;2023-12-14T03:23:44;4.78;;;2.50;;
60312;SDS011;46158;52.850;6.970;2023-12-14T03:26:10;5.47;;;2.42;;
60312;SDS011;46158;52.850;6.970;2023-12-14T03:28:36;5.63;;;2.53;;
60312;SDS011;46158;52.850;6.970;2023-12-14T03:31:02;5.00;;;2.22;;
60312;SDS011;46158;52.850;6.970;2023-12-14T03:33:28;4.85;;;2.38;;
60312;SDS011;46158;52.850;6.970;2023-12-14T03:35:54;4.85;;;2.50;;
60312;SDS011;46158;52.850;6.970;2023-12-14T03:38:20;5.20;;;2.53;;
60312;SDS011;46158;52.850;6.970;2023-12-14T03:40:46;6.03;;;2.40;;
60312;SDS011;46158;52.850;6.970;2023-12-14T03:43:11;4.82;;;2.33;;
60312;SDS011;46158;52.850;6.970;2023-12-14T03:45:37;4.93;;;2.55;;
60312;SDS011;46158;52.850;6.970;2023-12-14T03:48:02;4.35;;;2.50;;
60312;SDS011;46158;52.850;6.970;2023-12-14T03:50:28;3.67;;;2.30;;
60312;SDS011;46158;52.850;6.970;2023-12-14T03:52:54;5.40;;;2.40;;
60312;SDS011;46158;52.850;6.970;2023-12-14T03:55:20;6.47;;;2.50;;
60312;SDS011;46158;52.850;6.970;2023-12-14T03:57:46;4.03;;;2.50;;
60312;SDS011;46158;52.850;6.970;2023-12-14T04:00:12;4.75;;;2.50;;
60312;SDS011;46158;52.850;6.970;2023-12-14T04:02:38;6.22;;;2.53;;
60312;SDS011;46158;52.850;6.970;2023-12-14T04:05:06;4.93;;;2.50;;
60312;SDS011;46158;52.850;6.970;2023-12-14T04:07:32;6.15;;;2.65;;
60312;SDS011;46158;52.850;6.970;2023-12-14T04:09:58;5.78;;;2.30;;
60312;SDS011;46158;52.850;6.970;2023-12-14T04:12:23;5.93;;;2.55;;
60312;SDS011;46158;52.850;6.970;2023-12-14T04:14:49;4.45;;;2.40;;
60312;SDS011;46158;52.850;6.970;2023-12-14T04:17:14;5.07;;;2.50;;
60312;SDS011;46158;52.850;6.970;2023-12-14T04:19:40;6.32;;;2.53;;
60312;SDS011;46158;52.850;6.970;2023-12-14T04:22:06;4.95;;;2.38;;
60312;SDS011;46158;52.850;6.970;2023-12-14T04:24:32;5.38;;;2.47;;
60312;SDS011;46158;52.850;6.970;2023-12-14T04:26:58;4.88;;;2.50;;
60312;SDS011;46158;52.850;6.970;2023-12-14T04:29:24;5.35;;;2.40;;
60312;SDS011;46158;52.850;6.970;2023-12-14T04:31:50;5.57;;;2.45;;
60312;SDS011;46158;52.850;6.970;2023-12-14T04:34:16;5.90;;;2.42;;
60312;SDS011;46158;52.850;6.970;2023-12-14T04:36:44;4.97;;;2.47;;
60312;SDS011;46158;52.850;6.970;2023-12-14T04:39:10;4.97;;;2.50;;
60312;SDS011;46158;52.850;6.970;2023-12-14T04:41:36;5.07;;;2.22;;
60312;SDS011;46158;52.850;6.970;2023-12-14T04:44:02;5.78;;;2.60;;
60312;SDS011;46158;52.850;6.970;2023-12-14T04:46:28;6.57;;;2.50;;
60312;SDS011;46158;52.850;6.970;2023-12-14T04:48:54;4.13;;;2.38;;
60312;SDS011;46158;52.850;6.970;2023-12-14T04:51:20;4.47;;;2.45;;
60312;SDS011;46158;52.850;6.970;2023-12-14T04:53:46;6.45;;;2.50;;
60312;SDS011;46158;52.850;6.970;2023-12-14T04:56:11;6.45;;;2.70;;
60312;SDS011;46158;52.850;6.970;2023-12-14T04:58:40;6.20;;;2.70;;
60312;SDS011;46158;52.850;6.970;2023-12-14T05:01:06;4.57;;;2.33;;
60312;SDS011;46158;52.850;6.970;2023-12-14T05:03:35;6.55;;;2.50;;
60312;SDS011;46158;52.850;6.970;2023-12-14T05:06:01;5.03;;;2.30;;
60312;SDS011;46158;52.850;6.970;2023-12-14T05:08:26;4.88;;;2.50;;
60312;SDS011;46158;52.850;6.970;2023-12-14T05:10:52;4.70;;;2.30;;
60312;SDS011;46158;52.850;6.970;2023-12-14T05:13:17;6.22;;;2.33;;
60312;SDS011;46158;52.850;6.970;2023-12-14T05:15:43;5.60;;;2.28;;
60312;SDS011;46158;52.850;6.970;2023-12-14T05:18:09;4.40;;;2.35;;
60312;SDS011;46158;52.850;6.970;2023-12-14T05:20:34;5.45;;;2.50;;
60312;SDS011;46158;52.850;6.970;2023-12-14T05:23:00;6.45;;;2.58;;
60312;SDS011;46158;52.850;6.970;2023-12-14T05:25:26;6.28;;;2.80;;
60312;SDS011;46158;52.850;6.970;2023-12-14T05:27:52;5.25;;;2.50;;
60312;SDS011;46158;52.850;6.970;2023-12-14T05:30:18;6.18;;;2.58;;
60312;SDS011;46158;52.850;6.970;2023-12-14T05:32:44;4.72;;;2.65;;
60312;SDS011;46158;52.850;6.970;2023-12-14T05:35:10;6.32;;;2.70;;
60312;SDS011;46158;52.850;6.970;2023-12-14T05:37:38;6.65;;;2.60;;
60312;SDS011;46158;52.850;6.970;2023-12-14T05:40:04;6.68;;;2.63;;
60312;SDS011;46158;52.850;6.970;2023-12-14T05:42:30;3.97;;;2.50;;
60312;SDS011;46158;52.850;6.970;2023-12-14T05:44:56;6.22;;;2.45;;
60312;SDS011;46158;52.850;6.970;2023-12-14T05:47:21;5.10;;;2.60;;
60312;SDS011;46158;52.850;6.970;2023-12-14T05:49:47;6.03;;;2.50;;
60312;SDS011;46158;52.850;6.970;2023-12-14T05:52:13;7.88;;;2.90;;
60312;SDS011;46158;52.850;6.970;2023-12-14T05:54:39;10.10;;;2.90;;
60312;SDS011;46158;52.850;6.970;2023-12-14T05:57:05;11.45;;;3.13;;
60312;SDS011;46158;52.850;6.970;2023-12-14T05:59:30;14.27;;;3.50;;
60312;SDS011;46158;52.850;6.970;2023-12-14T06:02:00;15.10;;;3.40;;
60312;SDS011;46158;52.850;6.970;2023-12-14T06:04:26;16.73;;;3.85;;
60312;SDS011;46158;52.850;6.970;2023-12-14T06:06:52;12.80;;;2.72;;
60312;SDS011;46158;52.850;6.970;2023-12-14T06:09:18;14.55;;;3.60;;
60312;SDS011;46158;52.850;6.970;2023-12-14T06:11:47;16.25;;;3.50;;
60312;SDS011;46158;52.850;6.970;2023-12-14T06:14:13;15.60;;;3.58;;
60312;SDS011;46158;52.850;6.970;2023-12-14T06:16:38;14.18;;;3.83;;
60312;SDS011;46158;52.850;6.970;2023-12-14T06:19:04;14.85;;;3.53;;
60312;SDS011;46158;52.850;6.970;2023-12-14T06:21:30;16.02;;;4.20;;
60312;SDS011;46158;52.850;6.970;2023-12-14T06:23:56;13.48;;;3.60;;
60312;SDS011;46158;52.850;6.970;2023-12-14T06:26:25;13.90;;;3.28;;
60312;SDS011;46158;52.850;6.970;2023-12-14T06:28:50;15.02;;;3.53;;
60312;SDS011;46158;52.850;6.970;2023-12-14T06:31:16;14.20;;;3.53;;
60312;SDS011;46158;52.850;6.970;2023-12-14T06:33:43;13.93;;;3.97;;
60312;SDS011;46158;52.850;6.970;2023-12-14T06:36:09;12.85;;;3.80;;
60312;SDS011;46158;52.850;6.970;2023-12-14T06:38:37;12.18;;;3.20;;
60312;SDS011;46158;52.850;6.970;2023-12-14T06:41:04;13.85;;;3.58;;
60312;SDS011;46158;52.850;6.970;2023-12-14T06:43:29;12.27;;;3.72;;
60312;SDS011;46158;52.850;6.970;2023-12-14T06:45:55;12.20;;;3.30;;
60312;SDS011;46158;52.850;6.970;2023-12-14T06:48:21;15.50;;;3.58;;
60312;SDS011;46158;52.850;6.970;2023-12-14T06:50:46;14.07;;;3.38;;
60312;SDS011;46158;52.850;6.970;2023-12-14T06:53:12;13.95;;;3.70;;
60312;SDS011;46158;52.850;6.970;2023-12-14T06:55:39;12.63;;;3.33;;
60312;SDS011;46158;52.850;6.970;2023-12-14T06:58:05;14.55;;;3.35;;
60312;SDS011;46158;52.850;6.970;2023-12-14T07:00:36;13.70;;;3.50;;
60312;SDS011;46158;52.850;6.970;2023-12-14T07:03:01;12.13;;;3.53;;
60312;SDS011;46158;52.850;6.970;2023-12-14T07:05:28;10.82;;;3.22;;
60312;SDS011;46158;52.850;6.970;2023-12-14T07:07:54;11.05;;;3.40;;
60312;SDS011;46158;52.850;6.970;2023-12-14T07:10:21;8.32;;;2.92;;
60312;SDS011;46158;52.850;6.970;2023-12-14T07:12:47;13.05;;;3.17;;
60312;SDS011;46158;52.850;6.970;2023-12-14T07:15:13;8.88;;;3.00;;
60312;SDS011;46158;52.850;6.970;2023-12-14T07:17:38;9.85;;;2.97;;
60312;SDS011;46158;52.850;6.970;2023-12-14T07:20:05;10.45;;;2.90;;
60312;SDS011;46158;52.850;6.970;2023-12-14T07:22:31;10.00;;;3.13;;
60312;SDS011;46158;52.850;6.970;2023-12-14T07:24:57;8.75;;;2.92;;
60312;SDS011;46158;52.850;6.970;2023-12-14T07:27:23;10.57;;;3.47;;
60312;SDS011;46158;52.850;6.970;2023-12-14T07:29:48;9.90;;;3.17;;
60312;SDS011;46158;52.850;6.970;2023-12-14T07:32:14;9.32;;;3.15;;
60312;SDS011;46158;52.850;6.970;2023-12-14T07:34:39;8.80;;;2.70;;
60312;SDS011;46158;52.850;6.970;2023-12-14T07:37:05;9.23;;;3.13;;
60312;SDS011;46158;52.850;6.970;2023-12-14T07:39:31;10.63;;;3.30;;
60312;SDS011;46158;52.850;6.970;2023-12-14T07:41:56;10.75;;;2.97;;
60312;SDS011;46158;52.850;6.970;2023-12-14T07:44:22;8.98;;;3.30;;
60312;SDS011;46158;52.850;6.970;2023-12-14T07:46:50;9.18;;;3.05;;
60312;SDS011;46158;52.850;6.970;2023-12-14T07:49:16;9.45;;;3.00;;
60312;SDS011;46158;52.850;6.970;2023-12-14T07:51:46;9.70;;;2.90;;
60312;SDS011;46158;52.850;6.970;2023-12-14T07:54:11;9.48;;;3.33;;
60312;SDS011;46158;52.850;6.970;2023-12-14T07:56:37;10.75;;;3.00;;
60312;SDS011;46158;52.850;6.970;2023-12-14T07:59:03;8.73;;;3.00;;
60312;SDS011;46158;52.850;6.970;2023-12-14T08:01:31;9.15;;;2.90;;
60312;SDS011;46158;52.850;6.970;2023-12-14T08:03:57;7.97;;;2.97;;
60312;SDS011;46158;52.850;6.970;2023-12-14T08:06:23;9.57;;;2.90;;
60312;SDS011;46158;52.850;6.970;2023-12-14T08:08:48;10.48;;;3.00;;
60312;SDS011;46158;52.850;6.970;2023-12-14T08:11:14;7.88;;;2.78;;
60312;SDS011;46158;52.850;6.970;2023-12-14T08:13:40;8.38;;;3.00;;
60312;SDS011;46158;52.850;6.970;2023-12-14T08:16:07;8.48;;;2.90;;
60312;SDS011;46158;52.850;6.970;2023-12-14T08:18:34;9.43;;;2.78;;
60312;SDS011;46158;52.850;6.970;2023-12-14T08:20:59;9.35;;;2.90;;
60312;SDS011;46158;52.850;6.970;2023-12-14T08:23:25;9.45;;;3.15;;
60312;SDS011;46158;52.850;6.970;2023-12-14T08:25:56;8.80;;;3.15;;
60312;SDS011;46158;52.850;6.970;2023-12-14T08:28:22;10.02;;;3.03;;
60312;SDS011;46158;52.850;6.970;2023-12-14T08:30:49;10.23;;;3.20;;
60312;SDS011;46158;52.850;6.970;2023-12-14T08:33:14;8.60;;;3.30;;
60312;SDS011;46158;52.850;6.970;2023-12-14T08:35:40;9.18;;;3.13;;
60312;SDS011;46158;52.850;6.970;2023-12-14T08:38:06;7.00;;;2.90;;
60312;SDS011;46158;52.850;6.970;2023-12-14T08:40:32;9.20;;;2.97;;
60312;SDS011;46158;52.850;6.970;2023-12-14T08:42:58;10.82;;;3.03;;
60312;SDS011;46158;52.850;6.970;2023-12-14T08:45:24;9.38;;;3.10;;
60312;SDS011;46158;52.850;6.970;2023-12-14T08:47:49;7.45;;;2.78;;
60312;SDS011;46158;52.850;6.970;2023-12-14T08:50:15;9.50;;;2.95;;
60312;SDS011;46158;52.850;6.970;2023-12-14T08:52:41;9.60;;;3.25;;
60312;SDS011;46158;52.850;6.970;2023-12-14T08:55:07;9.27;;;2.90;;
60312;SDS011;46158;52.850;6.970;2023-12-14T08:57:33;10.63;;;3.28;;
60312;SDS011;46158;52.850;6.970;2023-12-14T08:59:59;6.72;;;2.80;;
60312;SDS011;46158;52.850;6.970;2023-12-14T09:02:26;9.20;;;2.88;;
60312;SDS011;46158;52.850;6.970;2023-12-14T09:04:51;7.55;;;2.88;;
60312;SDS011;46158;52.850;6.970;2023-12-14T09:07:17;8.13;;;3.00;;
60312;SDS011;46158;52.850;6.970;2023-12-14T09:09:43;8.70;;;3.13;;
60312;SDS011;46158;52.850;6.970;2023-12-14T09:12:09;8.32;;;2.90;;
60312;SDS011;46158;52.850;6.970;2023-12-14T09:14:34;8.50;;;3.00;;
60312;SDS011;46158;52.850;6.970;2023-12-14T09:17:01;8.73;;;3.00;;
60312;SDS011;46158;52.850;6.970;2023-12-14T09:19:28;11.52;;;3.33;;
60312;SDS011;46158;52.850;6.970;2023-12-14T09:21:55;7.85;;;2.90;;
60312;SDS011;46158;52.850;6.970;2023-12-14T09:24:21;9.05;;;3.15;;
60312;SDS011;46158;52.850;6.970;2023-12-14T09:26:46;9.80;;;3.00;;
60312;SDS011;46158;52.850;6.970;2023-12-14T09:29:12;9.30;;;3.20;;
60312;SDS011;46158;52.850;6.970;2023-12-14T09:31:42;9.20;;;3.35;;
60312;SDS011;46158;52.850;6.970;2023-12-14T09:34:09;7.00;;;2.80;;
60312;SDS011;46158;52.850;6.970;2023-12-14T09:36:35;9.00;;;3.15;;
60312;SDS011;46158;52.850;6.970;2023-12-14T09:39:01;9.23;;;3.00;;
60312;SDS011;46158;52.850;6.970;2023-12-14T09:41:28;8.52;;;3.20;;
60312;SDS011;46158;52.850;6.970;2023-12-14T09:43:53;11.25;;;3.33;;
60312;SDS011;46158;52.850;6.970;2023-12-14T09:46:19;8.90;;;3.20;;
60312;SDS011;46158;52.850;6.970;2023-12-14T09:48:47;10.63;;;3.30;;
60312;SDS011;46158;52.850;6.970;2023-12-14T09:51:14;8.77;;;3.30;;
60312;SDS011;46158;52.850;6.970;2023-12-14T09:53:41;9.10;;;3.30;;
60312;SDS011;46158;52.850;6.970;2023-12-14T09:56:07;6.30;;;2.97;;
60312;SDS011;46158;52.850;6.970;2023-12-14T09:58:33;10.23;;;3.50;;
60312;SDS011;46158;52.850;6.970;2023-12-14T10:00:59;10.98;;;3.58;;
60312;SDS011;46158;52.850;6.970;2023-12-14T10:03:29;11.75;;;3.40;;
60312;SDS011;46158;52.850;6.970;2023-12-14T10:05:58;10.18;;;3.28;;
60312;SDS011;46158;52.850;6.970;2023-12-14T10:08:26;8.15;;;3.15;;
60312;SDS011;46158;52.850;6.970;2023-12-14T10:10:53;9.48;;;3.20;;
60312;SDS011;46158;52.850;6.970;2023-12-14T10:13:21;8.05;;;3.22;;
60312;SDS011;46158;52.850;6.970;2023-12-14T10:16:00;9.65;;;3.40;;
60312;SDS011;46158;52.850;6.970;2023-12-14T10:18:25;9.52;;;3.15;;
60312;SDS011;46158;52.850;6.970;2023-12-14T10:20:51;9.68;;;3.47;;
60312;SDS011;46158;52.850;6.970;2023-12-14T10:23:17;9.32;;;3.22;;
60312;SDS011;46158;52.850;6.970;2023-12-14T10:25:43;10.75;;;3.47;;
60312;SDS011;46158;52.850;6.970;2023-12-14T10:28:14;8.82;;;3.40;;
60312;SDS011;46158;52.850;6.970;2023-12-14T10:30:40;9.95;;;3.60;;
60312;SDS011;46158;52.850;6.970;2023-12-14T10:33:07;11.23;;;3.63;;
60312;SDS011;46158;52.850;6.970;2023-12-14T10:35:33;11.02;;;3.83;;
60312;SDS011;46158;52.850;6.970;2023-12-14T10:38:01;9.13;;;3.35;;
60312;SDS011;46158;52.850;6.970;2023-12-14T10:40:29;9.10;;;3.47;;
60312;SDS011;46158;52.850;6.970;2023-12-14T10:42:57;9.23;;;3.20;;
60312;SDS011;46158;52.850;6.970;2023-12-14T10:45:29;9.70;;;3.35;;
60312;SDS011;46158;52.850;6.970;2023-12-14T10:47:58;8.60;;;3.38;;
60312;SDS011;46158;52.850;6.970;2023-12-14T10:50:29;11.23;;;3.63;;
60312;SDS011;46158;52.850;6.970;2023-12-14T10:52:59;12.05;;;4.03;;
60312;SDS011;46158;52.850;6.970;2023-12-14T10:55:42;8.88;;;3.38;;
60312;SDS011;46158;52.850;6.970;2023-12-14T10:58:09;9.23;;;3.40;;
60312;SDS011;46158;52.850;6.970;2023-12-14T11:00:36;9.50;;;3.33;;
60312;SDS011;46158;52.850;6.970;2023-12-14T11:03:06;9.50;;;3.10;;
60312;SDS011;46158;52.850;6.970;2023-12-14T11:05:32;9.85;;;3.67;;
60312;SDS011;46158;52.850;6.970;2023-12-14T11:08:03;10.07;;;3.58;;
60312;SDS011;46158;52.850;6.970;2023-12-14T11:10:38;10.32;;;3.63;;
60312;SDS011;46158;52.850;6.970;2023-12-14T11:13:09;10.52;;;3.40;;
60312;SDS011;46158;52.850;6.970;2023-12-14T11:15:37;9.30;;;3.42;;
60312;SDS011;46158;52.850;6.970;2023-12-14T11:23:10;10.98;;;3.83;;
60312;SDS011;46158;52.850;6.970;2023-12-14T11:25:39;9.45;;;3.53;;
60312;SDS011;46158;52.850;6.970;2023-12-14T11:28:08;12.20;;;3.75;;
60312;SDS011;46158;52.850;6.970;2023-12-14T11:30:35;11.30;;;3.53;;
60312;SDS011;46158;52.850;6.970;2023-12-14T11:33:02;9.23;;;3.30;;
60312;SDS011;46158;52.850;6.970;2023-12-14T11:35:28;11.63;;;4.05;;
60312;SDS011;46158;52.850;6.970;2023-12-14T11:37:55;11.15;;;3.70;;
60312;SDS011;46158;52.850;6.970;2023-12-14T11:40:27;9.43;;;3.58;;
60312;SDS011;46158;52.850;6.970;2023-12-14T11:43:00;10.43;;;3.40;;
60312;SDS011;46158;52.850;6.970;2023-12-14T11:45:27;11.05;;;3.53;;
60312;SDS011;46158;52.850;6.970;2023-12-14T11:47:53;9.77;;;3.55;;
60312;SDS011;46158;52.850;6.970;2023-12-14T11:50:19;10.55;;;3.72;;
60312;SDS011;46158;52.850;6.970;2023-12-14T11:52:45;11.57;;;4.07;;
60312;SDS011;46158;52.850;6.970;2023-12-14T11:55:11;10.73;;;3.40;;
60312;SDS011;46158;52.850;6.970;2023-12-14T11:57:37;8.98;;;3.53;;
60312;SDS011;46158;52.850;6.970;2023-12-14T12:00:02;11.50;;;3.80;;
60312;SDS011;46158;52.850;6.970;2023-12-14T12:02:29;9.82;;;3.63;;
60312;SDS011;46158;52.850;6.970;2023-12-14T12:04:55;9.88;;;3.53;;
60312;SDS011;46158;52.850;6.970;2023-12-14T12:07:21;11.88;;;3.70;;
60312;SDS011;46158;52.850;6.970;2023-12-14T12:09:46;11.70;;;3.90;;
60312;SDS011;46158;52.850;6.970;2023-12-14T12:12:12;10.70;;;3.80;;
60312;SDS011;46158;52.850;6.970;2023-12-14T12:14:41;10.23;;;3.60;;
60312;SDS011;46158;52.850;6.970;2023-12-14T12:17:08;9.33;;;3.53;;
60312;SDS011;46158;52.850;6.970;2023-12-14T12:19:35;10.90;;;3.72;;
60312;SDS011;46158;52.850;6.970;2023-12-14T12:22:01;10.38;;;3.60;;
60312;SDS011;46158;52.850;6.970;2023-12-14T12:24:28;10.40;;;3.50;;
60312;SDS011;46158;52.850;6.970;2023-12-14T12:26:54;11.63;;;3.70;;
60312;SDS011;46158;52.850;6.970;2023-12-14T12:29:20;9.45;;;3.40;;
60312;SDS011;46158;52.850;6.970;2023-12-14T12:31:46;10.02;;;3.65;;
60312;SDS011;46158;52.850;6.970;2023-12-14T12:34:12;9.88;;;3.60;;
60312;SDS011;46158;52.850;6.970;2023-12-14T12:36:38;12.15;;;3.63;;
60312;SDS011;46158;52.850;6.970;2023-12-14T12:39:03;9.57;;;3.45;;
60312;SDS011;46158;52.850;6.970;2023-12-14T12:41:31;9.35;;;3.50;;
60312;SDS011;46158;52.850;6.970;2023-12-14T12:43:57;11.65;;;3.70;;
60312;SDS011;46158;52.850;6.970;2023-12-14T12:46:24;8.13;;;3.42;;
60312;SDS011;46158;52.850;6.970;2023-12-14T12:48:49;8.82;;;3.35;;
60312;SDS011;46158;52.850;6.970;2023-12-14T12:51:16;9.10;;;3.67;;
60312;SDS011;46158;52.850;6.970;2023-12-14T12:53:42;9.23;;;3.30;;
60312;SDS011;46158;52.850;6.970;2023-12-14T12:56:07;8.20;;;3.40;;
60312;SDS011;46158;52.850;6.970;2023-12-14T12:58:33;9.25;;;3.40;;
60312;SDS011;46158;52.850;6.970;2023-12-14T13:01:02;10.90;;;3.30;;
60312;SDS011;46158;52.850;6.970;2023-12-14T13:03:28;10.80;;;3.67;;
60312;SDS011;46158;52.850;6.970;2023-12-14T13:05:53;10.20;;;3.30;;
60312;SDS011;46158;52.850;6.970;2023-12-14T13:08:19;9.13;;;3.83;;
60312;SDS011;46158;52.850;6.970;2023-12-14T13:10:47;10.32;;;3.50;;
60312;SDS011;46158;52.850;6.970;2023-12-14T13:13:14;10.18;;;3.47;;
60312;SDS011;46158;52.850;6.970;2023-12-14T13:15:40;9.95;;;3.28;;
60312;SDS011;46158;52.850;6.970;2023-12-14T13:18:05;8.82;;;3.30;;
60312;SDS011;46158;52.850;6.970;2023-12-14T13:20:31;10.48;;;3.38;;
60312;SDS011;46158;52.850;6.970;2023-12-14T13:22:57;11.45;;;3.70;;
60312;SDS011;46158;52.850;6.970;2023-12-14T13:25:22;12.07;;;3.67;;
60312;SDS011;46158;52.850;6.970;2023-12-14T13:27:51;14.70;;;3.97;;
60312;SDS011;46158;52.850;6.970;2023-12-14T13:30:16;9.85;;;3.47;;
60312;SDS011;46158;52.850;6.970;2023-12-14T13:32:42;11.70;;;3.53;;
60312;SDS011;46158;52.850;6.970;2023-12-14T13:35:08;13.80;;;3.75;;
60312;SDS011;46158;52.850;6.970;2023-12-14T13:37:34;10.05;;;3.55;;
60312;SDS011;46158;52.850;6.970;2023-12-14T13:40:00;11.68;;;3.97;;
60312;SDS011;46158;52.850;6.970;2023-12-14T13:42:25;9.15;;;3.35;;
60312;SDS011;46158;52.850;6.970;2023-12-14T13:44:51;9.80;;;3.60;;
60312;SDS011;46158;52.850;6.970;2023-12-14T13:47:17;14.10;;;4.00;;
60312;SDS011;46158;52.850;6.970;2023-12-14T13:49:42;13.10;;;3.97;;
60312;SDS011;46158;52.850;6.970;2023-12-14T13:52:09;11.88;;;4.00;;
60312;SDS011;46158;52.850;6.970;2023-12-14T13:54:35;15.15;;;3.88;;
60312;SDS011;46158;52.850;6.970;2023-12-14T13:57:02;12.80;;;3.83;;
60312;SDS011;46158;52.850;6.970;2023-12-14T13:59:28;12.20;;;3.90;;
60312;SDS011;46158;52.850;6.970;2023-12-14T14:01:53;12.65;;;4.10;;
60312;SDS011;46158;52.850;6.970;2023-12-14T14:04:19;10.35;;;3.60;;
60312;SDS011;46158;52.850;6.970;2023-12-14T14:06:44;12.40;;;4.03;;
60312;SDS011;46158;52.850;6.970;2023-12-14T14:09:11;11.52;;;3.70;;
60312;SDS011;46158;52.850;6.970;2023-12-14T14:11:37;12.45;;;3.80;;
60312;SDS011;46158;52.850;6.970;2023-12-14T14:14:06;14.25;;;3.88;;
60312;SDS011;46158;52.850;6.970;2023-12-14T14:16:31;12.85;;;3.92;;
60312;SDS011;46158;52.850;6.970;2023-12-14T14:18:57;14.05;;;4.20;;
60312;SDS011;46158;52.850;6.970;2023-12-14T14:21:23;13.60;;;3.78;;
60312;SDS011;46158;52.850;6.970;2023-12-14T14:23:49;13.40;;;3.92;;
60312;SDS011;46158;52.850;6.970;2023-12-14T14:26:14;14.63;;;4.20;;
60312;SDS011;46158;52.850;6.970;2023-12-14T14:28:40;13.10;;;3.80;;
60312;SDS011;46158;52.850;6.970;2023-12-14T14:31:06;13.73;;;4.10;;
60312;SDS011;46158;52.850;6.970;2023-12-14T14:33:31;13.88;;;4.10;;
60312;SDS011;46158;52.850;6.970;2023-12-14T14:35:57;12.50;;;4.22;;
60312;SDS011;46158;52.850;6.970;2023-12-14T14:38:23;12.93;;;3.80;;
60312;SDS011;46158;52.850;6.970;2023-12-14T14:40:49;12.27;;;4.07;;
60312;SDS011;46158;52.850;6.970;2023-12-14T14:43:14;12.88;;;3.90;;
60312;SDS011;46158;52.850;6.970;2023-12-14T14:45:40;13.27;;;3.90;;